createdAt,value
2022-09-28T00:02:24.554Z,99486.03
2022-09-28T00:04:51.411Z,99489.97
2022-09-28T00:07:18.155Z,99487.00
2022-09-28T00:09:44.924Z,99484.13
2022-09-28T00:12:11.836Z,99486.22
2022-09-28T00:14:40.570Z,99479.13
2022-09-28T00:17:08.292Z,99483.19
2022-09-28T00:19:35.163Z,99475.47
2022-09-28T00:22:01.996Z,99479.03
2022-09-28T00:24:29.569Z,99479.19
2022-09-28T00:26:58.876Z,99488.75
2022-09-28T00:29:34.183Z,99484.19
2022-09-28T00:32:07.872Z,99477.28
2022-09-28T00:34:43.299Z,99474.03
2022-09-28T00:37:10.536Z,99478.44
2022-09-28T00:39:41.184Z,99478.03
2022-09-28T00:42:25.986Z,99479.41
2022-09-28T00:44:56.804Z,99472.28
2022-09-28T00:47:45.480Z,99470.44
2022-09-28T00:50:21.401Z,99466.09
2022-09-28T00:52:54.330Z,99462.38
2022-09-28T00:55:29.170Z,99466.66
2022-09-28T00:57:59.414Z,99456.78
2022-09-28T01:00:26.612Z,99463.34
2022-09-28T01:02:53.653Z,99461.22
2022-09-28T01:05:22.399Z,99463.56
2022-09-28T01:07:49.286Z,99451.53
2022-09-28T01:10:16.199Z,99459.03
2022-09-28T01:12:43.326Z,99462.00
2022-09-28T01:15:11.000Z,99464.28
2022-09-28T01:18:07.175Z,99457.09
2022-09-28T01:21:01.814Z,99458.03
2022-09-28T01:23:54.375Z,99456.41
2022-09-28T01:27:11.854Z,99457.34
2022-09-28T01:30:14.578Z,99455.72
2022-09-28T01:32:51.255Z,99453.81
2022-09-28T01:35:31.311Z,99450.56
2022-09-28T01:38:14.424Z,99451.72
2022-09-28T01:40:42.055Z,99460.19
2022-09-28T01:43:14.726Z,99457.41
2022-09-28T01:45:49.509Z,99453.50
2022-09-28T01:48:24.019Z,99459.16
2022-09-28T01:50:56.171Z,99455.78
2022-09-28T01:53:32.152Z,99456.47
2022-09-28T01:56:14.422Z,99453.75
2022-09-28T01:58:48.778Z,99455.69
2022-09-28T02:01:28.873Z,99455.41
2022-09-28T02:04:16.311Z,99448.81
2022-09-28T02:06:58.734Z,99448.66
2022-09-28T02:09:34.181Z,99447.56
2022-09-28T02:12:10.734Z,99452.63
2022-09-28T02:14:41.226Z,99443.88
2022-09-28T02:17:10.118Z,99445.84
2022-09-28T02:19:38.569Z,99450.13
2022-09-28T02:22:05.348Z,99441.00
2022-09-28T02:24:38.944Z,99446.81
2022-09-28T02:27:17.195Z,99440.25
2022-09-28T02:29:45.149Z,99451.31
2022-09-28T02:32:11.991Z,99438.13
2022-09-28T02:34:39.885Z,99446.81
2022-09-28T02:37:08.709Z,99443.88
2022-09-28T02:39:35.503Z,99437.56
2022-09-28T02:42:21.330Z,99433.59
2022-09-28T02:44:51.166Z,99432.56
2022-09-28T02:47:44.349Z,99430.38
2022-09-28T02:50:23.986Z,99437.84
2022-09-28T02:53:10.507Z,99434.84
2022-09-28T02:55:43.651Z,99435.78
2022-09-28T02:58:22.100Z,99436.09
2022-09-28T03:01:15.944Z,99435.66
2022-09-28T03:03:50.391Z,99436.63
2022-09-28T03:06:33.630Z,99437.34
2022-09-28T03:09:07.746Z,99443.81
2022-09-28T03:12:06.594Z,99436.97
2022-09-28T03:14:33.637Z,99441.09
2022-09-28T03:17:00.588Z,99438.00
2022-09-28T03:19:33.227Z,99444.75
2022-09-28T03:22:01.790Z,99447.50
2022-09-28T03:24:28.624Z,99438.44
2022-09-28T03:26:55.402Z,99443.47
2022-09-28T03:29:22.906Z,99438.16
2022-09-28T03:32:02.293Z,99446.34
2022-09-28T03:34:29.101Z,99448.06
2022-09-28T03:36:56.187Z,99449.25
2022-09-28T03:39:23.607Z,99453.31
2022-09-28T03:41:50.404Z,99445.19
2022-09-28T03:44:20.063Z,99449.31
2022-09-28T03:46:48.125Z,99439.72
2022-09-28T03:49:14.980Z,99452.16
2022-09-28T03:51:41.809Z,99441.16
2022-09-28T03:54:08.794Z,99448.31
2022-09-28T03:56:35.563Z,99440.25
2022-09-28T03:59:05.553Z,99435.72
2022-09-28T04:01:32.583Z,99443.00
2022-09-28T04:03:59.455Z,99448.47
2022-09-28T04:06:26.559Z,99435.06
2022-09-28T04:08:53.855Z,99443.06
2022-09-28T04:11:20.973Z,99438.59
2022-09-28T04:13:49.471Z,99441.13
2022-09-28T04:16:17.888Z,99445.03
2022-09-28T04:18:53.224Z,99446.94
2022-09-28T04:21:41.134Z,99443.91
2022-09-28T04:24:11.359Z,99444.16
2022-09-28T04:26:38.185Z,99441.72
2022-09-28T04:29:17.298Z,99441.91
2022-09-28T04:31:50.727Z,99441.16
2022-09-28T04:34:21.485Z,99444.53
2022-09-28T04:36:49.948Z,99444.13
2022-09-28T04:39:18.256Z,99452.22
2022-09-28T04:41:51.353Z,99452.69
2022-09-28T04:44:18.792Z,99452.38
2022-09-28T04:46:47.384Z,99456.00
2022-09-28T04:49:29.514Z,99447.78
2022-09-28T04:51:58.506Z,99454.88
2022-09-28T04:54:25.293Z,99452.94
2022-09-28T04:56:52.908Z,99455.44
2022-09-28T04:59:19.769Z,99458.78
2022-09-28T05:01:47.558Z,99456.75
2022-09-28T05:04:32.971Z,99453.84
2022-09-28T05:07:26.904Z,99457.31
2022-09-28T05:09:55.250Z,99461.69
2022-09-28T05:12:22.029Z,99456.97
2022-09-28T05:14:48.805Z,99465.72
2022-09-28T05:17:15.826Z,99467.97
2022-09-28T05:19:45.409Z,99477.75
2022-09-28T05:22:14.869Z,99476.88
2022-09-28T05:24:46.451Z,99471.72
2022-09-28T05:27:13.785Z,99477.84
2022-09-28T05:29:41.116Z,99475.91
2022-09-28T05:32:46.205Z,99468.50
2022-09-28T05:35:29.535Z,99475.59
2022-09-28T05:37:57.248Z,99470.94
2022-09-28T05:40:24.190Z,99469.00
2022-09-28T05:42:51.000Z,99465.50
2022-09-28T05:45:17.808Z,99466.47
2022-09-28T05:47:46.244Z,99461.47
2022-09-28T05:50:16.311Z,99461.66
2022-09-28T05:52:44.116Z,99460.19
2022-09-28T05:55:11.652Z,99458.19
2022-09-28T05:57:38.823Z,99461.66
2022-09-28T06:00:10.190Z,99466.38
2022-09-28T06:02:40.179Z,99459.22
2022-09-28T06:05:09.534Z,99466.19
2022-09-28T06:07:36.380Z,99458.91
2022-09-28T06:10:03.915Z,99458.44
2022-09-28T06:12:41.248Z,99464.22
2022-09-28T06:15:15.135Z,99463.53
2022-09-28T06:17:43.861Z,99467.72
2022-09-28T06:20:42.500Z,99479.78
2022-09-28T06:23:16.403Z,99475.59
2022-09-28T06:25:43.620Z,99477.25
2022-09-28T06:28:13.127Z,99486.50
2022-09-28T06:30:41.503Z,99488.53
2022-09-28T06:33:13.431Z,99485.88
2022-09-28T06:35:42.271Z,99484.72
2022-09-28T06:38:09.725Z,99493.56
2022-09-28T06:40:38.625Z,99494.44
2022-09-28T06:43:10.561Z,99486.28
2022-09-28T06:45:56.097Z,99487.91
2022-09-28T06:48:44.264Z,99484.03
2022-09-28T06:51:18.575Z,99495.22
2022-09-28T06:54:00.532Z,99492.28
2022-09-28T06:56:40.911Z,99486.63
2022-09-28T06:59:07.787Z,99492.53
2022-09-28T07:01:36.527Z,99489.78
2022-09-28T07:04:10.457Z,99491.59
2022-09-28T07:06:56.156Z,99496.00
2022-09-28T07:09:46.458Z,99491.47
2022-09-28T07:12:35.851Z,99491.13
2022-09-28T07:15:12.254Z,99500.59
2022-09-28T07:17:54.554Z,99496.78
2022-09-28T07:20:27.169Z,99499.72
2022-09-28T07:23:14.968Z,99500.19
2022-09-28T07:26:15.013Z,99502.75
2022-09-28T07:28:56.140Z,99509.81
2022-09-28T07:31:33.827Z,99512.22
2022-09-28T07:34:26.508Z,99513.09
2022-09-28T07:37:13.673Z,99513.88
2022-09-28T07:39:59.556Z,99518.31
2022-09-28T07:42:30.562Z,99514.50
2022-09-28T07:44:58.102Z,99511.22
2022-09-28T07:47:33.846Z,99514.31
2022-09-28T07:50:30.821Z,99513.19
2022-09-28T07:53:22.382Z,99519.59
2022-09-28T07:56:14.039Z,99516.53
2022-09-28T07:58:52.572Z,99519.03
2022-09-28T08:01:49.614Z,99520.47
2022-09-28T08:04:17.835Z,99528.25
2022-09-28T08:06:48.291Z,99528.78
2022-09-28T08:09:15.413Z,99528.13
2022-09-28T08:12:01.031Z,99535.31
2022-09-28T08:14:49.183Z,99537.31
2022-09-28T08:17:34.137Z,99531.66
2022-09-28T08:20:24.131Z,99533.50
2022-09-28T08:22:51.290Z,99541.00
2022-09-28T08:25:18.985Z,99540.66
2022-09-28T08:27:46.821Z,99544.19
2022-09-28T08:30:14.668Z,99542.22
2022-09-28T08:32:50.350Z,99552.78
2022-09-28T08:35:35.719Z,99548.41
2022-09-28T08:38:29.978Z,99555.94
2022-09-28T08:41:18.177Z,99562.94
2022-09-28T08:44:25.935Z,99563.97
2022-09-28T08:47:48.758Z,99567.16
2022-09-28T08:50:29.111Z,99563.25
2022-09-28T08:53:44.864Z,99565.69
2022-09-28T08:56:42.990Z,99567.88
2022-09-28T08:59:18.882Z,99571.50
2022-09-28T09:01:58.019Z,99578.31
2022-09-28T09:04:26.466Z,99573.63
2022-09-28T09:07:41.583Z,99577.44
2022-09-28T09:10:28.671Z,99582.31
2022-09-28T09:13:29.102Z,99581.53
2022-09-28T09:16:09.989Z,99579.56
2022-09-28T09:19:00.782Z,99580.44
2022-09-28T09:22:01.184Z,99579.38
2022-09-28T09:24:50.615Z,99588.72
2022-09-28T09:27:41.339Z,99577.97
2022-09-28T09:30:12.827Z,99580.22
2022-09-28T09:33:01.337Z,99581.25
2022-09-28T09:35:37.508Z,99583.78
2022-09-28T09:38:41.127Z,99589.06
2022-09-28T09:41:54.008Z,99586.09
2022-09-28T09:45:14.155Z,99589.66
2022-09-28T09:48:31.181Z,99595.63
2022-09-28T09:51:03.193Z,99589.56
2022-09-28T09:53:38.628Z,99595.19
2022-09-28T09:56:15.440Z,99599.91
2022-09-28T09:59:19.970Z,99598.78
2022-09-28T10:02:21.164Z,99600.38
2022-09-28T10:04:58.597Z,99607.16
2022-09-28T10:07:50.017Z,99604.28
2022-09-28T10:10:29.938Z,99605.97
2022-09-28T10:13:25.833Z,99604.47
2022-09-28T10:15:55.472Z,99604.31
2022-09-28T10:18:28.154Z,99606.72
2022-09-28T10:21:20.497Z,99607.69
2022-09-28T10:23:58.053Z,99613.13
2022-09-28T10:26:43.301Z,99610.38
2022-09-28T10:29:20.659Z,99614.00
2022-09-28T10:31:49.377Z,99609.44
2022-09-28T10:34:30.508Z,99609.75
2022-09-28T10:37:06.715Z,99606.63
2022-09-28T10:39:55.986Z,99609.63
2022-09-28T10:42:31.385Z,99609.91
2022-09-28T10:45:05.354Z,99611.78
2022-09-28T10:47:35.689Z,99613.88
2022-09-28T10:50:27.015Z,99615.31
2022-09-28T10:53:21.413Z,99612.06
2022-09-28T10:56:18.374Z,99612.00
2022-09-28T10:58:45.945Z,99617.81
2022-09-28T11:01:26.884Z,99614.50
2022-09-28T11:04:02.231Z,99611.50
2022-09-28T11:06:36.960Z,99626.06
2022-09-28T11:09:22.607Z,99620.72
2022-09-28T11:11:50.073Z,99624.50
2022-09-28T11:14:42.133Z,99621.72
2022-09-28T11:17:16.103Z,99628.59
2022-09-28T11:19:43.783Z,99624.00
2022-09-28T11:22:37.941Z,99629.22
2022-09-28T11:25:19.141Z,99641.09
2022-09-28T11:27:53.140Z,99643.34
2022-09-28T11:30:23.846Z,99640.50
2022-09-28T11:33:33.006Z,99650.44
2022-09-28T11:36:39.444Z,99648.44
2022-09-28T11:39:18.034Z,99652.81
2022-09-28T11:42:07.176Z,99646.09
2022-09-28T11:44:39.820Z,99647.38
2022-09-28T11:47:36.967Z,99646.41
2022-09-28T11:50:29.404Z,99648.44
2022-09-28T11:53:18.193Z,99648.31
2022-09-28T11:56:09.208Z,99651.47
2022-09-28T11:58:48.028Z,99639.94
2022-09-28T12:01:35.660Z,99646.44
2022-09-28T12:04:20.755Z,99644.25
2022-09-28T12:06:56.636Z,99651.34
2022-09-28T12:10:02.322Z,99647.28
2022-09-28T12:12:35.351Z,99650.38
2022-09-28T12:15:23.163Z,99655.38
2022-09-28T12:17:56.113Z,99657.66
2022-09-28T12:20:33.337Z,99659.69
2022-09-28T12:23:00.004Z,99661.13
2022-09-28T12:25:33.026Z,99653.16
2022-09-28T12:28:03.407Z,99655.06
2022-09-28T12:30:40.595Z,99649.97
2022-09-28T12:33:15.473Z,99660.03
2022-09-28T12:35:48.196Z,99657.09
2022-09-28T12:38:33.396Z,99648.03
2022-09-28T12:41:22.586Z,99651.38
2022-09-28T12:44:04.662Z,99650.78
2022-09-28T12:47:06.479Z,99654.25
2022-09-28T12:50:37.682Z,99648.22
2022-09-28T12:53:07.377Z,99652.75
2022-09-28T12:55:56.527Z,99650.00
2022-09-28T12:58:52.156Z,99651.59
2022-09-28T13:01:42.439Z,99651.25
2022-09-28T13:04:48.867Z,99650.59
2022-09-28T13:07:32.455Z,99655.84
2022-09-28T13:10:32.720Z,99649.91
2022-09-28T13:13:41.190Z,99650.28
2022-09-28T13:16:17.562Z,99647.31
2022-09-28T13:18:55.984Z,99646.88
2022-09-28T13:21:40.965Z,99648.81
2022-09-28T13:24:30.958Z,99645.13
2022-09-28T13:27:04.728Z,99646.94
2022-09-28T13:29:34.100Z,99644.59
2022-09-28T13:32:03.264Z,99650.38
2022-09-28T13:34:33.576Z,99653.09
2022-09-28T13:37:20.283Z,99651.34
2022-09-28T13:39:52.253Z,99647.97
2022-09-28T13:42:35.115Z,99647.22
2022-09-28T13:45:25.124Z,99647.28
2022-09-28T13:47:51.927Z,99638.59
2022-09-28T13:50:44.571Z,99639.41
2022-09-28T13:53:55.689Z,99642.09
2022-09-28T13:56:53.601Z,99644.69
2022-09-28T13:59:31.966Z,99645.53
2022-09-28T14:02:06.964Z,99641.13
2022-09-28T14:05:01.780Z,99645.56
2022-09-28T14:07:34.613Z,99641.22
2022-09-28T14:10:17.638Z,99641.22
2022-09-28T14:12:54.938Z,99637.72
2022-09-28T14:15:37.007Z,99643.00
2022-09-28T14:18:26.917Z,99646.41
2022-09-28T14:21:02.670Z,99648.22
2022-09-28T14:23:50.655Z,99654.31
2022-09-28T14:26:29.913Z,99647.31
2022-09-28T14:29:17.689Z,99641.25
2022-09-28T14:31:45.330Z,99645.59
2022-09-28T14:34:37.567Z,99649.06
2022-09-28T14:37:36.897Z,99650.81
2022-09-28T14:40:39.992Z,99656.88
2022-09-28T14:43:32.571Z,99657.34
2022-09-28T14:46:11.530Z,99649.19
2022-09-28T14:48:49.134Z,99655.81
2022-09-28T14:51:26.204Z,99655.84
2022-09-28T14:53:55.347Z,99646.59
2022-09-28T14:56:22.233Z,99651.31
2022-09-28T14:58:56.915Z,99663.91
2022-09-28T15:01:25.978Z,99662.09
2022-09-28T15:03:56.657Z,99667.41
2022-09-28T15:06:24.622Z,99666.59
2022-09-28T15:08:51.655Z,99663.94
2022-09-28T15:11:23.607Z,99671.78
2022-09-28T15:13:55.643Z,99669.06
2022-09-28T15:16:24.097Z,99673.63
2022-09-28T15:19:00.051Z,99679.72
2022-09-28T15:21:39.950Z,99684.09
2022-09-28T15:24:32.659Z,99678.84
2022-09-28T15:27:13.703Z,99688.34
2022-09-28T15:29:40.934Z,99685.72
2022-09-28T15:32:27.341Z,99692.53
2022-09-28T15:34:56.842Z,99693.28
2022-09-28T15:37:29.428Z,99690.78
2022-09-28T15:39:58.040Z,99695.34
2022-09-28T15:42:25.645Z,99694.34
2022-09-28T15:45:37.147Z,99697.75
2022-09-28T15:48:30.412Z,99703.84
2022-09-28T15:51:12.729Z,99693.53
2022-09-28T15:53:54.201Z,99700.28
2022-09-28T15:56:21.058Z,99705.53
2022-09-28T15:59:11.150Z,99702.63
2022-09-28T16:01:39.997Z,99702.66
2022-09-28T16:04:37.461Z,99711.28
2022-09-28T16:07:17.339Z,99710.06
2022-09-28T16:10:06.201Z,99707.22
2022-09-28T16:12:41.316Z,99714.09
2022-09-28T16:15:20.218Z,99714.31
2022-09-28T16:18:03.108Z,99719.47
2022-09-28T16:20:36.484Z,99716.22
2022-09-28T16:23:16.020Z,99721.97
2022-09-28T16:25:59.461Z,99725.78
2022-09-28T16:28:35.086Z,99721.91
2022-09-28T16:31:07.624Z,99722.19
2022-09-28T16:33:45.780Z,99718.72
2022-09-28T16:36:16.046Z,99715.78
2022-09-28T16:38:47.017Z,99727.81
2022-09-28T16:41:19.482Z,99721.97
2022-09-28T16:43:47.145Z,99728.44
2022-09-28T16:46:17.801Z,99734.84
2022-09-28T16:48:50.232Z,99737.38
2022-09-28T16:51:19.718Z,99734.66
2022-09-28T16:54:05.533Z,99742.97
2022-09-28T16:56:35.086Z,99738.59
2022-09-28T16:59:04.931Z,99742.88
2022-09-28T17:01:32.033Z,99752.16
2022-09-28T17:03:58.903Z,99744.06
2022-09-28T17:06:26.715Z,99745.34
2022-09-28T17:08:59.343Z,99747.09
2022-09-28T17:11:26.208Z,99745.06
2022-09-28T17:13:59.038Z,99748.22
2022-09-28T17:16:57.333Z,99751.00
2022-09-28T17:19:25.708Z,99757.47
2022-09-28T17:21:53.080Z,99756.72
2022-09-28T17:24:20.514Z,99755.47
2022-09-28T17:26:49.904Z,99760.34
2022-09-28T17:29:16.949Z,99761.69
2022-09-28T17:31:45.630Z,99759.34
2022-09-28T17:34:15.204Z,99766.69
2022-09-28T17:36:43.347Z,99766.25
2022-09-28T17:39:15.400Z,99768.88
2022-09-28T17:41:42.440Z,99772.00
2022-09-28T17:44:09.636Z,99773.91
2022-09-28T17:46:39.740Z,99770.50
2022-09-28T17:49:09.743Z,99765.50
2022-09-28T17:51:37.709Z,99765.25
2022-09-28T17:54:06.546Z,99771.22
2022-09-28T17:56:33.938Z,99768.97
2022-09-28T17:59:06.651Z,99782.56
2022-09-28T18:01:39.315Z,99775.19
2022-09-28T18:04:08.846Z,99779.97
2022-09-28T18:06:37.292Z,99780.00
2022-09-28T18:09:05.515Z,99779.81
2022-09-28T18:11:33.653Z,99777.94
2022-09-28T18:14:01.030Z,99782.50
2022-09-28T18:16:28.980Z,99784.56
2022-09-28T18:18:56.175Z,99784.47
2022-09-28T18:21:23.051Z,99790.63
2022-09-28T18:23:50.134Z,99781.84
2022-09-28T18:26:19.601Z,99787.72
2022-09-28T18:28:47.110Z,99784.69
2022-09-28T18:31:15.568Z,99792.91
2022-09-28T18:33:52.569Z,99794.56
2022-09-28T18:36:23.631Z,99794.69
2022-09-28T18:38:50.732Z,99800.81
2022-09-28T18:41:17.572Z,99795.88
2022-09-28T18:43:51.073Z,99791.38
2022-09-28T18:46:18.730Z,99806.19
2022-09-28T18:48:47.240Z,99804.09
2022-09-28T18:51:14.509Z,99801.34
2022-09-28T18:53:41.617Z,99796.69
2022-09-28T18:56:10.732Z,99801.28
2022-09-28T18:58:39.873Z,99804.38
2022-09-28T19:01:31.576Z,99807.72
2022-09-28T19:04:00.629Z,99809.66
2022-09-28T19:06:28.117Z,99811.28
2022-09-28T19:08:55.782Z,99816.31
2022-09-28T19:11:23.150Z,99810.03
2022-09-28T19:13:50.636Z,99816.00
2022-09-28T19:16:27.379Z,99811.44
2022-09-28T19:18:56.303Z,99828.78
2022-09-28T19:21:23.346Z,99825.03
2022-09-28T19:23:50.739Z,99825.72
2022-09-28T19:26:21.293Z,99831.72
2022-09-28T19:28:48.500Z,99826.81
2022-09-28T19:31:15.690Z,99824.56
2022-09-28T19:33:43.780Z,99831.44
2022-09-28T19:36:12.951Z,99823.00
2022-09-28T19:38:40.243Z,99824.53
2022-09-28T19:41:12.993Z,99827.50
2022-09-28T19:43:43.652Z,99826.22
2022-09-28T19:46:12.765Z,99838.38
2022-09-28T19:48:42.355Z,99824.78
2022-09-28T19:51:09.209Z,99828.72
2022-09-28T19:53:41.084Z,99828.31
2022-09-28T19:56:07.886Z,99829.66
2022-09-28T19:58:36.553Z,99836.31
2022-09-28T20:01:07.149Z,99836.72
2022-09-28T20:03:34.882Z,99835.06
2022-09-28T20:06:02.269Z,99825.72
2022-09-28T20:08:32.588Z,99838.22
2022-09-28T20:11:00.118Z,99835.59
2022-09-28T20:13:33.730Z,99839.47
2022-09-28T20:16:08.011Z,99838.66
2022-09-28T20:18:36.457Z,99842.94
2022-09-28T20:21:04.829Z,99850.19
2022-09-28T20:23:31.760Z,99842.72
2022-09-28T20:25:59.011Z,99844.88
2022-09-28T20:28:26.118Z,99853.25
2022-09-28T20:30:53.175Z,99845.56
2022-09-28T20:33:28.698Z,99853.44
2022-09-28T20:35:56.066Z,99852.09
2022-09-28T20:38:23.668Z,99843.94
2022-09-28T20:40:50.560Z,99848.28
2022-09-28T20:43:17.361Z,99850.28
2022-09-28T20:45:44.306Z,99843.41
2022-09-28T20:48:11.104Z,99846.09
2022-09-28T20:50:37.890Z,99843.50
2022-09-28T20:53:04.745Z,99844.56
2022-09-28T20:55:31.470Z,99845.41
2022-09-28T20:58:02.808Z,99843.38
2022-09-28T21:00:29.821Z,99845.84
2022-09-28T21:02:56.690Z,99846.72
2022-09-28T21:05:23.499Z,99849.63
2022-09-28T21:07:50.278Z,99849.78
2022-09-28T21:10:17.123Z,99846.53
2022-09-28T21:12:48.180Z,99855.69
2022-09-28T21:15:15.006Z,99853.78
2022-09-28T21:17:41.829Z,99854.78
2022-09-28T21:20:08.934Z,99858.72
2022-09-28T21:22:35.706Z,99861.56
2022-09-28T21:25:02.478Z,99859.22
2022-09-28T21:27:29.265Z,99856.22
2022-09-28T21:29:55.977Z,99858.59
2022-09-28T21:32:23.295Z,99856.88
2022-09-28T21:34:50.470Z,99861.09
2022-09-28T21:37:17.269Z,99860.88
2022-09-28T21:39:44.160Z,99861.66
2022-09-28T21:42:10.883Z,99861.28
2022-09-28T21:44:37.676Z,99861.00
2022-09-28T21:47:04.566Z,99872.38
2022-09-28T21:49:31.288Z,99872.53
2022-09-28T21:51:58.041Z,99866.25
2022-09-28T21:54:24.793Z,99871.25
2022-09-28T21:56:52.589Z,99873.88
2022-09-28T21:59:19.458Z,99885.69
2022-09-28T22:01:48.120Z,99884.13
2022-09-28T22:04:14.958Z,99886.13
2022-09-28T22:06:41.754Z,99885.59
2022-09-28T22:09:08.902Z,99882.41
2022-09-28T22:11:35.726Z,99888.16
2022-09-28T22:14:02.540Z,99894.50
2022-09-28T22:16:30.742Z,99893.56
2022-09-28T22:18:58.756Z,99892.50
2022-09-28T22:21:31.828Z,99895.69
2022-09-28T22:24:01.163Z,99886.97
2022-09-28T22:26:29.504Z,99899.81
2022-09-28T22:28:58.721Z,99897.13
2022-09-28T22:31:29.005Z,99902.97
2022-09-28T22:33:56.815Z,99897.13
2022-09-28T22:36:24.307Z,99897.31
2022-09-28T22:38:51.330Z,99905.78
2022-09-28T22:41:22.304Z,99909.09
2022-09-28T22:43:51.379Z,99910.19
2022-09-28T22:46:20.878Z,99913.00
2022-09-28T22:48:49.541Z,99917.13
2022-09-28T22:51:16.914Z,99911.44
2022-09-28T22:53:44.256Z,99912.47
2022-09-28T22:56:14.738Z,99912.69
2022-09-28T22:58:45.115Z,99909.31
2022-09-28T23:01:15.137Z,99910.66
2022-09-28T23:03:42.618Z,99918.88
2022-09-28T23:06:10.896Z,99916.31
2022-09-28T23:08:38.957Z,99917.03
2022-09-28T23:11:06.618Z,99919.41
2022-09-28T23:13:33.707Z,99922.88
2022-09-28T23:16:27.060Z,99920.91
2022-09-28T23:18:55.547Z,99926.31
2022-09-28T23:21:24.618Z,99930.41
2022-09-28T23:23:54.362Z,99920.09
2022-09-28T23:26:27.563Z,99918.34
2022-09-28T23:28:55.363Z,99919.78
2022-09-28T23:31:24.913Z,99921.78
2022-09-28T23:33:51.983Z,99919.47
2022-09-28T23:36:18.968Z,99923.53
2022-09-28T23:38:45.862Z,99921.19
2022-09-28T23:41:12.614Z,99926.56
2022-09-28T23:43:39.478Z,99915.47
2022-09-28T23:46:06.487Z,99927.44
2022-09-28T23:48:34.981Z,99920.34
2022-09-28T23:51:02.463Z,99916.94
2022-09-28T23:53:30.067Z,99918.44
2022-09-28T23:55:56.788Z,99917.09
2022-09-28T23:58:24.180Z,99917.72
